EGXW/WTN METAR and TAF weather

Enter ICAO airport designator
Station Type Date Time Source
EGXW METAR 2018/10/16 19:50 UTC NOAA

EGXW 161950Z 20011KT 9000 HZ BKN240 14/13 Q1014 BLU


Station Type Date Time Source
EGXW Decoded METAR 2018/10/16 19:50 UTC NOAA

Waddington, United Kingdom (EGXW) 53-10N 000-31W 0M
Oct 16, 2018 - 03:50 PM EDT / 2018.10.16 1950 UTC
Wind: from the SSW (200 degrees) at 13 MPH (11 KT):0
Visibility: 5 mile(s):0
Sky conditions: mostly cloudy
Weather: haze
Temperature: 57 F (14 C)
Dew Point: 55 F (13 C)
Relative Humidity: 93%
Pressure (altimeter): 29.94 in. Hg (1014 hPa)
ob: EGXW 161950Z 20011KT 9000 HZ BKN240 14/13 Q1014 BLU
cycle: 20

Station Type Date Time Source
EGXW TAF 2018/10/16 21:55 UTC NOAA

TAF EGXW 161950Z 1621/1715 20010KT 9000 HZ BKN040 PROB40 1621/1711 6000 BR PROB40
TEMPO 1701/1710 4000 -RADZ SCT012 PROB30
TEMPO 1705/1709 2000 DZ BKN004 PROB30
TEMPO 1710/1712 SCT018


Example: see airport list